Sweetwater — WDJ5986 — position and weather

sailwx.info

Track history (hours):
 
Tides and Currents Weather Stations Pressure Air Temp Water Temp Dewpoint Dewpoint Depression Visibility Wind Speed Wind Dir Waves Ship Positions

Sweetwater

Owner: Sweetwater Yachting LLC, Charlotte, NC. More information available from US FCC via Universal Licensing System and Coast Guard Vessel Documentation Center.

Last reported at 2018-Jan-12 14:51 UTC. Time now 2018-Jan-19 03:39 UTC.
Position N 26°06' W 080°10'.

Length 25 m; draft 12.9 m.

Type: Pleasure craft. MMSI: 369164000.

Date/timePositionNaut miles runAvg speedWind from/ knotsBaromVisibWave heightAir tempDewpointWater temp
2018-Jan-12 14:51N 26°06' W 080°10'0 0.0
2018-Jan-12 14:21N 26°06' W 080°10'0 0.0
2018-Jan-12 13:51N 26°06' W 080°10'0 0.0
2018-Jan-12 13:21N 26°06' W 080°10'0 0.0
2018-Jan-12 12:48N 26°06' W 080°10'0 0.0
2018-Jan-12 12:21N 26°06' W 080°10'0 0.0
2018-Jan-12 11:51N 26°06' W 080°10'0 0.0
2018-Jan-12 11:24N 26°06' W 080°10'0 0.0
2018-Jan-12 10:51N 26°06' W 080°10'0 0.0
2018-Jan-12 10:24N 26°06' W 080°10'0 0.0
2018-Jan-12 09:54N 26°06' W 080°10'0 0.0
2018-Jan-12 09:21N 26°06' W 080°10'0 0.0
2018-Jan-12 08:51N 26°06' W 080°10'0 0.0
2018-Jan-12 08:21N 26°06' W 080°10'0 0.0
2018-Jan-12 07:51N 26°06' W 080°10'0 0.0
2018-Jan-12 07:24N 26°06' W 080°10'0 0.0
2018-Jan-12 06:53N 26°06' W 080°10'0 0.0
2018-Jan-12 06:23N 26°06' W 080°10'0 0.0
2018-Jan-12 05:53N 26°06' W 080°10'0 0.0
2018-Jan-12 05:23N 26°06' W 080°10'0 0.0
2018-Jan-12 04:53N 26°06' W 080°10'0 0.0
2018-Jan-12 04:23N 26°06' W 080°10'0 0.0
2018-Jan-12 03:53N 26°06' W 080°10'0 0.0
2018-Jan-12 03:23N 26°06' W 080°10'0 0.0
2018-Jan-12 02:53N 26°06' W 080°10'0 0.0
2018-Jan-12 02:26N 26°06' W 080°10'0 0.0
2018-Jan-12 01:53N 26°06' W 080°10'0 0.0
2018-Jan-12 01:23N 26°06' W 080°10'0 0.0
2018-Jan-12 00:56N 26°06' W 080°10'0 0.0
2018-Jan-12 00:26N 26°06' W 080°10'0 0.0
2018-Jan-11 23:53N 26°06' W 080°10'0 0.0
2018-Jan-11 23:26N 26°06' W 080°10'0 0.0
2018-Jan-11 22:56N 26°06' W 080°10'0 0.0
2018-Jan-11 22:23N 26°06' W 080°10'0 0.0
2018-Jan-11 21:53N 26°06' W 080°10'0 0.0
2018-Jan-11 21:26N 26°06' W 080°10'0 0.0
2018-Jan-11 20:53N 26°06' W 080°10'0 0.0
2018-Jan-11 20:23N 26°06' W 080°10'0 0.0
2018-Jan-11 19:53N 26°06' W 080°10'0 0.3
2018-Jan-11 19:30N 26°06' W 080°10'1 3.0
2018-Jan-11 19:00N 26°07' W 080°09'2 3.3
2018-Jan-11 18:28N 26°07' W 080°07'3 6.5
2018-Jan-11 17:59N 26°05' W 080°03'1 2.3
2018-Jan-11 17:28N 26°06' W 080°04'2 3.7
2018-Jan-11 16:58N 26°05' W 080°06'2 4.4
2018-Jan-11 16:28N 26°03' W 080°06'4 8.3
2018-Jan-11 15:59N 26°07' W 080°07'2 4.2
2018-Jan-11 15:28N 26°07' W 080°10'1 1.1
2018-Jan-11 14:52N 26°06' W 080°10'0 0.0
2018-Jan-11 14:25N 26°06' W 080°10'0 0.0
2018-Jan-11 13:55N 26°06' W 080°10'0 0.0
2018-Jan-11 13:22N 26°06' W 080°10'0 0.0
2018-Jan-11 12:55N 26°06' W 080°10'0 0.0
2018-Jan-11 12:24N 26°06' W 080°10'0 0.0
2018-Jan-11 11:54N 26°06' W 080°10'0 0.0
2018-Jan-11 11:18N 26°06' W 080°10'0 0.0
2018-Jan-11 10:54N 26°06' W 080°10'0 0.0
2018-Jan-11 10:24N 26°06' W 080°10'0 0.0
2018-Jan-11 09:54N 26°06' W 080°10'0 0.0
2018-Jan-11 09:24N 26°06' W 080°10'0 0.0
2018-Jan-11 08:54N 26°06' W 080°10'0 0.0
2018-Jan-11 08:24N 26°06' W 080°10'0 0.0
2018-Jan-11 07:54N 26°06' W 080°10'0 0.0
2018-Jan-11 07:24N 26°06' W 080°10'0 0.0
2018-Jan-11 06:54N 26°06' W 080°10'0 0.0
2018-Jan-11 06:27N 26°06' W 080°10'0 0.0
2018-Jan-11 05:39N 26°06' W 080°10'0 0.0
2018-Jan-11 05:09N 26°06' W 080°10'0 0.0
2018-Jan-11 04:54N 26°06' W 080°10'0 0.0
2018-Jan-11 04:24N 26°06' W 080°10'0 0.0
2018-Jan-11 03:57N 26°06' W 080°10'0 0.0
2018-Jan-11 03:27N 26°06' W 080°10'0 0.0
2018-Jan-11 02:57N 26°06' W 080°10'0 0.0
2018-Jan-11 02:27N 26°06' W 080°10'0 0.0
2018-Jan-11 01:57N 26°06' W 080°10'0 0.0
2018-Jan-11 01:27N 26°06' W 080°10'0 0.0
2018-Jan-11 00:42N 26°06' W 080°10'0 0.0
2018-Jan-11 00:27N 26°06' W 080°10'0 0.0
2018-Jan-10 23:51N 26°06' W 080°10'0 0.0
2018-Jan-10 23:27N 26°06' W 080°10'0 0.0
2018-Jan-10 22:54N 26°06' W 080°10'0 0.0
2018-Jan-10 22:24N 26°06' W 080°10'0 0.0
2018-Jan-10 21:54N 26°06' W 080°10'0 0.0
2018-Jan-10 21:09N 26°06' W 080°10'0 0.0
2018-Jan-10 20:54N 26°06' W 080°10'0 0.0
2018-Jan-10 20:23N 26°06' W 080°10'0 0.0
2018-Jan-10 19:50N 26°06' W 080°10'0 0.0
2018-Jan-10 19:17N 26°06' W 080°10'0 0.0
2018-Jan-10 18:53N 26°06' W 080°10'0 0.0
2018-Jan-10 18:08N 26°06' W 080°10'0 0.0
2018-Jan-10 17:53N 26°06' W 080°10'0 0.0
2018-Jan-10 17:26N 26°06' W 080°10'0 0.0
2018-Jan-10 16:56N 26°06' W 080°10'0 0.0
2018-Jan-10 16:23N 26°06' W 080°10'0 0.0
2018-Jan-10 15:53N 26°06' W 080°10'0 0.0
2018-Jan-10 15:26N 26°06' W 080°10'0 0.0
2018-Jan-10 14:56N 26°06' W 080°10'0 0.0
2018-Jan-10 14:26N 26°06' W 080°10'0 0.0
2018-Jan-10 13:56N 26°06' W 080°10'0 0.0
2018-Jan-10 13:20N 26°06' W 080°10'0 0.0
2018-Jan-10 12:56N 26°06' W 080°10'0 0.0
2018-Jan-10 12:26N 26°06' W 080°10'0 0.0
2018-Jan-10 11:56N 26°06' W 080°10'0 0.0
2018-Jan-10 11:23N 26°06' W 080°10'0 0.0
2018-Jan-10 10:56N 26°06' W 080°10'0 0.0
2018-Jan-10 10:26N 26°06' W 080°10'0 0.0
2018-Jan-10 09:56N 26°06' W 080°10'0 0.0
2018-Jan-10 09:26N 26°06' W 080°10'0 0.0
2018-Jan-10 08:43N 26°06' W 080°10'0 0.0
2018-Jan-10 08:04N 26°06' W 080°10'0 0.0
2018-Jan-10 07:58N 26°06' W 080°10'0 0.0
2018-Jan-10 07:28N 26°06' W 080°10'0 0.0
2018-Jan-10 06:46N 26°06' W 080°10'0 0.0
2018-Jan-10 06:19N 26°06' W 080°10'0 0.0
2018-Jan-10 05:49N 26°06' W 080°10'0 0.0
2018-Jan-10 05:19N 26°06' W 080°10'0 0.0
2018-Jan-10 04:49N 26°06' W 080°10'0 0.0
2018-Jan-10 04:19N 26°06' W 080°10'0 0.0
2018-Jan-10 03:49N 26°06' W 080°10'0 0.0
2018-Jan-10 03:19N 26°06' W 080°10'0 0.0
2018-Jan-10 02:46N 26°06' W 080°10'0 0.0
2018-Jan-10 02:22N 26°06' W 080°10'0 0.0
2018-Jan-10 01:52N 26°06' W 080°10'0 0.0
2018-Jan-10 01:22N 26°06' W 080°10'0 0.0
2018-Jan-10 00:49N 26°06' W 080°10'0 0.0
2018-Jan-10 00:22N 26°06' W 080°10'0 0.0
2018-Jan-09 23:52N 26°06' W 080°10'0 0.0
2018-Jan-09 23:22N 26°06' W 080°10'0 0.0
2018-Jan-09 22:49N 26°06' W 080°10'0 0.0
2018-Jan-09 22:22N 26°06' W 080°10'0 0.0
2018-Jan-09 21:52N 26°06' W 080°10'0 0.0
2018-Jan-09 21:22N 26°06' W 080°10'0 0.0
2018-Jan-09 20:52N 26°06' W 080°10'0 0.0
2018-Jan-09 20:19N 26°06' W 080°10'0 0.0
2018-Jan-09 19:55N 26°06' W 080°10'0 0.0
2018-Jan-09 19:25N 26°06' W 080°10'0 0.0
2018-Jan-09 18:52N 26°06' W 080°10'0 0.0
2018-Jan-09 18:25N 26°06' W 080°10'0 0.0
2018-Jan-09 17:55N 26°06' W 080°10'0 0.0
2018-Jan-09 17:10N 26°06' W 080°10'0 0.0
2018-Jan-09 16:40N 26°06' W 080°10'0 0.0
2018-Jan-09 16:25N 26°06' W 080°10'0 0.0
2018-Jan-09 15:55N 26°06' W 080°10'0 0.0
2018-Jan-09 15:30N 26°06' W 080°10'0 0.0
2018-Jan-09 15:00N 26°06' W 080°10'0 0.0
2018-Jan-09 14:30N 26°06' W 080°10'0 0.0
2018-Jan-09 13:30N 26°06' W 080°10'0 0.0
2018-Jan-09 13:00N 26°06' W 080°10'0 0.0
2018-Jan-09 12:27N 26°06' W 080°10'0 0.0
2018-Jan-09 12:00N 26°06' W 080°10'0 0.0
2018-Jan-09 11:30N 26°06' W 080°10'0 0.0
2018-Jan-09 11:00N 26°06' W 080°10'0 0.0
2018-Jan-09 10:27N 26°06' W 080°10'0 0.0
2018-Jan-09 10:00N 26°06' W 080°10'0 0.0
2018-Jan-09 09:30N 26°06' W 080°10'0 0.0
2018-Jan-09 09:00N 26°06' W 080°10'0 0.0
2018-Jan-09 08:30N 26°06' W 080°10'0 0.0
2018-Jan-09 07:44N 26°06' W 080°10'0 0.0
2018-Jan-09 07:30N 26°06' W 080°10'0 0.0
2018-Jan-09 06:59N 26°06' W 080°10'0 0.0
2018-Jan-09 06:30N 26°06' W 080°10'0 0.0
2018-Jan-09 05:59N 26°06' W 080°10'0 0.0
2018-Jan-09 05:29N 26°06' W 080°10'0 0.0
2018-Jan-09 04:47N 26°06' W 080°10'0 0.0
2018-Jan-09 04:17N 26°06' W 080°10'0 0.0
2018-Jan-09 03:53N 26°06' W 080°10'0 0.0
2018-Jan-09 03:20N 26°06' W 080°10'0 0.0
2018-Jan-09 02:53N 26°06' W 080°10'0 0.0
2018-Jan-09 02:23N 26°06' W 080°10'0 0.0
2018-Jan-09 01:50N 26°06' W 080°10'0 0.0
2018-Jan-09 01:20N 26°06' W 080°10'0 0.0
2018-Jan-09 00:53N 26°06' W 080°10'0 0.0
2018-Jan-09 00:20N 26°06' W 080°10'0 0.0
2018-Jan-08 23:50N 26°06' W 080°10'0 0.0
2018-Jan-08 23:20N 26°06' W 080°10'0 0.0
2018-Jan-08 22:50N 26°06' W 080°10'0 0.0
2018-Jan-08 22:20N 26°06' W 080°10'0 0.0
2018-Jan-08 21:47N 26°06' W 080°10'0 0.0
2018-Jan-08 21:20N 26°06' W 080°10'0 0.0
2018-Jan-08 20:53N 26°06' W 080°10'0 0.0
2018-Jan-08 20:23N 26°06' W 080°10'0 0.0
2018-Jan-08 19:53N 26°06' W 080°10'0 0.0
2018-Jan-08 19:17N 26°06' W 080°10'0 0.0
2018-Jan-08 18:47N 26°06' W 080°10'0 0.0
2018-Jan-08 18:23N 26°06' W 080°10'0 0.0
2018-Jan-08 17:53N 26°06' W 080°10'0 0.0
2018-Jan-08 17:23N 26°06' W 080°10'0 0.0
2018-Jan-08 16:53N 26°06' W 080°10'0 0.0
2018-Jan-08 16:20N 26°06' W 080°10'0 0.0
2018-Jan-08 15:50N 26°06' W 080°10'0 0.0
2018-Jan-08 15:23N 26°06' W 080°10'0 0.0
2018-Jan-08 14:47N 26°06' W 080°10'0 0.0
2018-Jan-08 13:49N 26°06' W 080°10'0 0.0
2018-Jan-08 13:28N 26°06' W 080°10'0 0.0
2018-Jan-08 12:58N 26°06' W 080°10'0 0.0
2018-Jan-08 12:28N 26°06' W 080°10'0 0.0
2018-Jan-08 11:46N 26°06' W 080°10'0 0.0
2018-Jan-08 11:16N 26°06' W 080°10'0 0.0
2018-Jan-08 10:58N 26°06' W 080°10'0 0.0
2018-Jan-08 10:13N 26°06' W 080°10'0 0.0
2018-Jan-08 09:58N 26°06' W 080°10'0 0.0
2018-Jan-08 09:25N 26°06' W 080°10'0 0.0
2018-Jan-08 08:43N 26°06' W 080°10'0 0.0
2018-Jan-08 08:28N 26°06' W 080°10'0 0.0
2018-Jan-08 07:58N 26°06' W 080°10'0 0.0
2018-Jan-08 07:13N 26°06' W 080°10'0 0.0
2018-Jan-08 06:46N 26°06' W 080°10'0 0.0
2018-Jan-08 06:28N 26°06' W 080°10'0 0.0
2018-Jan-08 05:49N 26°06' W 080°10'0 0.0
2018-Jan-08 05:28N 26°06' W 080°10'0 0.0
2018-Jan-08 04:58N 26°06' W 080°10'0 0.0
2018-Jan-08 04:28N 26°06' W 080°10'0 0.0
2018-Jan-08 03:58N 26°06' W 080°10'0 0.0
2018-Jan-08 03:19N 26°06' W 080°10'0 0.0
2018-Jan-08 02:46N 26°06' W 080°10'0 0.0
2018-Jan-08 02:19N 26°06' W 080°10'0 0.0
2018-Jan-08 01:58N 26°06' W 080°10'0 0.0
2018-Jan-08 01:13N 26°06' W 080°10'0 0.0
2018-Jan-08 00:58N 26°06' W 080°10'0 0.0
2018-Jan-08 00:28N 26°06' W 080°10'0 0.0
2018-Jan-08 00:00N 26°06' W 080°10'0 0.0
2018-Jan-07 23:27N 26°06' W 080°10'0 0.0
2018-Jan-07 23:00N 26°06' W 080°10'0 0.0
2018-Jan-07 22:30N 26°06' W 080°10'0 0.0
2018-Jan-07 22:00N 26°06' W 080°10'0 0.0
2018-Jan-07 21:30N 26°06' W 080°10'0 0.0
2018-Jan-07 21:00N 26°06' W 080°10'0 0.0
2018-Jan-07 20:30N 26°06' W 080°10'0 0.0
2018-Jan-07 20:00N 26°06' W 080°10'0 0.0
2018-Jan-07 19:30N 26°06' W 080°10'0 0.0
2018-Jan-07 18:57N 26°06' W 080°10'0 0.0
2018-Jan-07 18:30N 26°06' W 080°10'0 0.0
2018-Jan-07 17:57N 26°06' W 080°10'0 0.0
2018-Jan-07 17:30N 26°06' W 080°10'0 0.0
2018-Jan-07 16:57N 26°06' W 080°10'0 0.0
2018-Jan-07 16:24N 26°06' W 080°10'0 0.0
2018-Jan-07 16:00N 26°06' W 080°10'0 0.0
2018-Jan-07 15:27N 26°06' W 080°10'0 0.0
2018-Jan-07 14:57N 26°06' W 080°10'0 0.0
2018-Jan-07 14:24N 26°06' W 080°10'0 0.0
2018-Jan-07 13:57N 26°06' W 080°10'0 0.0
2018-Jan-07 13:23N 26°06' W 080°10'0 0.0
2018-Jan-07 12:56N 26°06' W 080°10'0 0.0
2018-Jan-07 12:26N 26°06' W 080°10'0 0.0
2018-Jan-07 11:53N 26°06' W 080°10'0 0.0
2018-Jan-07 11:20N 26°06' W 080°10'0 0.0
2018-Jan-07 10:53N 26°06' W 080°10'0 0.0
2018-Jan-07 10:23N 26°06' W 080°10'0 0.0
2018-Jan-07 09:53N 26°06' W 080°10'0 0.0
2018-Jan-07 09:23N 26°06' W 080°10'0 0.0
2018-Jan-07 08:57N 26°06' W 080°10'0 0.0
2018-Jan-07 08:30N 26°06' W 080°10'0 0.0
2018-Jan-07 07:54N 26°06' W 080°10'0 0.0
2018-Jan-07 07:24N 26°06' W 080°10'0 0.0
2018-Jan-07 06:54N 26°06' W 080°10'0 0.0
2018-Jan-07 06:24N 26°06' W 080°10'0 0.0
2018-Jan-07 06:00N 26°06' W 080°10'0 0.0
2018-Jan-07 05:30N 26°06' W 080°10'0 0.0
2018-Jan-07 04:57N 26°06' W 080°10'0 0.0
2018-Jan-07 04:20N 26°06' W 080°10'0 0.0
2018-Jan-07 03:53N 26°06' W 080°10'0 0.0
2018-Jan-07 03:17N 26°06' W 080°10'0 0.0
2018-Jan-07 02:59N 26°06' W 080°10'0 0.0
2018-Jan-07 02:29N 26°06' W 080°10'0 0.0
2018-Jan-07 01:59N 26°06' W 080°10'0 0.0
2018-Jan-07 01:20N 26°06' W 080°10'0 0.0
2018-Jan-07 00:20N 26°06' W 080°10'0 0.0
2018-Jan-06 23:59N 26°06' W 080°10'0 0.0
2018-Jan-06 23:29N 26°06' W 080°10'0 0.0
2018-Jan-06 22:59N 26°06' W 080°10'0 0.0
2018-Jan-06 22:29N 26°06' W 080°10'0 0.0
2018-Jan-06 21:56N 26°06' W 080°10'0 0.0
2018-Jan-06 21:29N 26°06' W 080°10'0 0.0
2018-Jan-06 20:59N 26°06' W 080°10'0 0.0
2018-Jan-06 20:29N 26°06' W 080°10'0 0.0
2018-Jan-06 19:59N 26°06' W 080°10'0 0.0
2018-Jan-06 19:28N 26°06' W 080°10'0 0.0
2018-Jan-06 18:58N 26°06' W 080°10'0 0.0
2018-Jan-06 18:22N 26°06' W 080°10'0 0.0
2018-Jan-06 17:58N 26°06' W 080°10'0 0.0
2018-Jan-06 17:28N 26°06' W 080°10'0 0.0
2018-Jan-06 16:55N 26°06' W 080°10'0 0.0
2018-Jan-06 16:25N 26°06' W 080°10'0 0.0
2018-Jan-06 15:43N 26°06' W 080°10'0 0.0
2018-Jan-06 15:28N 26°06' W 080°10'0 0.0
2018-Jan-06 14:55N 26°06' W 080°10'0 0.0
2018-Jan-06 14:19N 26°06' W 080°10'0 0.0
2018-Jan-06 13:49N 26°06' W 080°10'0 0.0
2018-Jan-06 13:28N 26°06' W 080°10'0 0.0
2018-Jan-06 12:04N 26°06' W 080°10'0 0.0
2018-Jan-06 11:49N 26°06' W 080°10'0 0.0
2018-Jan-06 11:28N 26°06' W 080°10'0 0.0
2018-Jan-06 10:52N 26°06' W 080°10'0 0.0
2018-Jan-06 10:19N 26°06' W 080°10'0 0.0
2018-Jan-06 10:01N 26°06' W 080°10'0 0.0
2018-Jan-06 09:30N 26°06' W 080°10'0 0.0
2018-Jan-06 09:00N 26°06' W 080°10'0 0.0
2018-Jan-06 08:30N 26°06' W 080°10'0 0.0
2018-Jan-06 08:00N 26°06' W 080°10'0 0.0
2018-Jan-06 07:30N 26°06' W 080°10'0 0.0
2018-Jan-06 07:00N 26°06' W 080°10'0 0.0
2018-Jan-06 06:30N 26°06' W 080°10'0 0.0
2018-Jan-06 05:48N 26°06' W 080°10'0 0.0
2018-Jan-06 05:30N 26°06' W 080°10'0 0.0
2018-Jan-06 05:00N 26°06' W 080°10'0 0.0
2018-Jan-06 04:30N 26°06' W 080°10'0 0.0
2018-Jan-06 04:00N 26°06' W 080°10'0 0.0
2018-Jan-06 03:30N 26°06' W 080°10'0 0.0
2018-Jan-06 02:57N 26°06' W 080°10'0 0.0
2018-Jan-06 02:30N 26°06' W 080°10'0 0.0
2018-Jan-06 01:54N 26°06' W 080°10'0 0.0
2018-Jan-06 01:27N 26°06' W 080°10'0 0.0
2018-Jan-06 00:54N 26°06' W 080°10'0 0.0
2018-Jan-06 00:30N 26°06' W 080°10'0 0.0
2018-Jan-05 23:50N 26°06' W 080°10'0 0.0
2018-Jan-05 23:26N 26°06' W 080°10'0 0.0
2018-Jan-05 22:47N 26°06' W 080°10'0 0.0
2018-Jan-05 22:29N 26°06' W 080°10'0 0.0
2018-Jan-05 21:50N 26°06' W 080°10'0 0.0
2018-Jan-05 21:29N 26°06' W 080°10'0 0.0
2018-Jan-05 20:59N 26°06' W 080°10'0 0.0
2018-Jan-05 20:20N 26°06' W 080°10'0 0.0
2018-Jan-05 19:59N 26°06' W 080°10'0 0.0
2018-Jan-05 19:29N 26°06' W 080°10'0 0.0
2018-Jan-05 18:50N 26°06' W 080°10'0 0.0
2018-Jan-05 18:29N 26°06' W 080°10'0 0.0
2018-Jan-05 17:59N 26°06' W 080°10'0 0.0
2018-Jan-05 17:29N 26°06' W 080°10'0 0.0
2018-Jan-05 16:59N 26°06' W 080°10'0 0.0
2018-Jan-05 16:29N 26°06' W 080°10'0 0.0
2018-Jan-05 15:56N 26°06' W 080°10'0 0.0
2018-Jan-05 15:29N 26°06' W 080°10'0 0.0
2018-Jan-05 14:59N 26°06' W 080°10'0 0.0
2018-Jan-05 14:29N 26°06' W 080°10'0 0.0
2018-Jan-05 13:59N 26°06' W 080°10'0 0.0
2018-Jan-05 13:17N 26°06' W 080°10'0 0.0
2018-Jan-05 12:50N 26°06' W 080°10'0 0.0
2018-Jan-05 12:29N 26°06' W 080°10'0 0.0
2018-Jan-05 11:56N 26°06' W 080°10'0 0.0
2018-Jan-05 11:20N 26°06' W 080°10'0 0.0
2018-Jan-05 10:53N 26°06' W 080°10'0 0.0
2018-Jan-05 10:20N 26°06' W 080°10'0 0.0
2018-Jan-05 09:59N 26°06' W 080°10'0 0.0
2018-Jan-05 09:26N 26°06' W 080°10'0 0.0
2018-Jan-05 09:00N 26°06' W 080°10'0 0.0
2018-Jan-05 08:29N 26°06' W 080°10'0 0.0
2018-Jan-05 07:59N 26°06' W 080°10'0 0.0
2018-Jan-05 07:29N 26°06' W 080°10'0 0.0
2018-Jan-05 06:59N 26°06' W 080°10'0 0.0
2018-Jan-05 06:13N 26°06' W 080°10'0 0.0
2018-Jan-05 05:58N 26°06' W 080°10'0 0.0
2018-Jan-05 05:28N 26°06' W 080°10'0 0.0
2018-Jan-05 04:58N 26°06' W 080°10'0 0.0
2018-Jan-05 04:28N 26°06' W 080°10'0 0.0
2018-Jan-05 03:58N 26°06' W 080°10'0 0.0
2018-Jan-05 03:28N 26°06' W 080°10'0 0.0
2018-Jan-05 02:55N 26°06' W 080°10'0 0.0
2018-Jan-05 02:19N 26°06' W 080°10'0 0.0
2018-Jan-05 01:58N 26°06' W 080°10'0 0.0
2018-Jan-05 01:25N 26°06' W 080°10'0 0.0
2018-Jan-05 00:55N 26°06' W 080°10'0 0.0
2018-Jan-05 00:28N 26°06' W 080°10'0 0.0
2018-Jan-04 23:58N 26°06' W 080°10'0 0.0
2018-Jan-04 23:25N 26°06' W 080°10'0 0.0
2018-Jan-04 22:58N 26°06' W 080°10'0 0.0
2018-Jan-04 22:28N 26°06' W 080°10'0 0.0
2018-Jan-04 21:58N 26°06' W 080°10'0 0.0
2018-Jan-04 21:28N 26°06' W 080°10'0 0.0
2018-Jan-04 20:58N 26°06' W 080°10'0 0.0
2018-Jan-04 20:28N 26°06' W 080°10'0 0.0
2018-Jan-04 19:58N 26°06' W 080°10'0 0.0
2018-Jan-04 19:28N 26°06' W 080°10'0 0.0
2018-Jan-04 18:58N 26°06' W 080°10'0 0.0
2018-Jan-04 18:28N 26°06' W 080°10'0 0.0
2018-Jan-04 17:58N 26°06' W 080°10'0 0.0
2018-Jan-04 17:28N 26°06' W 080°10'0 0.0
2018-Jan-04 16:58N 26°06' W 080°10'0 0.0
2018-Jan-04 16:28N 26°06' W 080°10'0 0.0
2018-Jan-04 15:58N 26°06' W 080°10'0 0.0
2018-Jan-03 16:20N 26°06' W 080°10'0 0.0
2018-Jan-03 15:50N 26°06' W 080°10'0 0.0
2018-Jan-03 15:20N 26°06' W 080°10'0 0.0
2018-Jan-03 14:50N 26°06' W 080°10'0 0.0
2018-Jan-03 14:20N 26°06' W 080°10'0 0.0
2018-Jan-03 13:35N 26°06' W 080°10'0 0.0
2018-Jan-03 13:20N 26°06' W 080°10'0 0.0
2018-Jan-03 12:35N 26°06' W 080°10'0 0.0
2018-Jan-03 12:20N 26°06' W 080°10'0 0.0
2018-Jan-03 11:50N 26°06' W 080°10'0 0.0
2018-Jan-03 11:20N 26°06' W 080°10'0 0.0
2018-Jan-03 10:53N 26°06' W 080°10'0 0.0
2018-Jan-03 10:02N 26°06' W 080°10'0 0.0
2018-Jan-03 09:35N 26°06' W 080°10'0 0.0
2018-Jan-03 09:23N 26°06' W 080°10'0 0.0
2018-Jan-03 08:53N 26°06' W 080°10'0 0.1
2018-Jan-03 08:20N 26°06' W 080°10'0 0.1
2018-Jan-03 07:53N 26°06' W 080°10'0 0.0
2018-Jan-03 07:23N 26°06' W 080°10'0 0.0
2018-Jan-03 06:47N 26°06' W 080°10'0 0.0
2018-Jan-03 06:23N 26°06' W 080°10'0 0.0
2018-Jan-03 05:53N 26°06' W 080°10'0 0.0
2018-Jan-03 05:23N 26°06' W 080°10'0 0.0
2018-Jan-03 04:53N 26°06' W 080°10'0 0.0
2018-Jan-03 04:23N 26°06' W 080°10'0 0.0
2018-Jan-03 03:53N 26°06' W 080°10'0 0.0
2018-Jan-03 03:20N 26°06' W 080°10'0 0.0
2018-Jan-03 02:53N 26°06' W 080°10'0 0.0
2018-Jan-03 02:26N 26°06' W 080°10'0 0.0
2018-Jan-03 01:56N 26°06' W 080°10'0 0.0
2018-Jan-03 01:26N 26°06' W 080°10'0 0.0
2018-Jan-03 00:56N 26°06' W 080°10'0 0.0
2018-Jan-03 00:23N 26°06' W 080°10'0 0.0
2018-Jan-02 23:56N 26°06' W 080°10'0 0.0
2018-Jan-02 23:26N 26°06' W 080°10'0 0.0
2018-Jan-02 22:56N 26°06' W 080°10'0 0.0
2018-Jan-02 22:26N 26°06' W 080°10'0 0.0
2018-Jan-02 21:56N 26°06' W 080°10'0 0.0
2018-Jan-02 21:26N 26°06' W 080°10'0 0.0
2018-Jan-02 20:56N 26°06' W 080°10'0 0.0
2018-Jan-02 20:29N 26°06' W 080°10'0 0.0
2018-Jan-02 19:59N 26°06' W 080°10'0 0.0
2018-Jan-02 19:29N 26°06' W 080°10'0 0.0
2018-Jan-02 18:44N 26°06' W 080°10'0 0.0
2018-Jan-02 18:29N 26°06' W 080°10'0 0.0
2018-Jan-02 17:59N 26°06' W 080°10'0 0.0
2018-Jan-02 17:29N 26°06' W 080°10'0 0.0
2018-Jan-02 16:59N 26°06' W 080°10'0 0.0
2018-Jan-02 16:29N 26°06' W 080°10'0 0.0
2018-Jan-02 15:59N 26°06' W 080°10'0 0.0
2018-Jan-02 15:26N 26°06' W 080°10'0 0.0
2018-Jan-02 14:59N 26°06' W 080°10'  
Track history (hours):
 
Tides and Currents Weather Stations Pressure Air Temp Water Temp Dewpoint Dewpoint Depression Visibility Wind Speed Wind Dir Waves Ship Positions

Sweetwater

Owner: Sweetwater Yachting LLC, Charlotte, NC. More information available from US FCC via Universal Licensing System and Coast Guard Vessel Documentation Center.

Last reported at 2018-Jan-12 14:51 UTC. Time now 2018-Jan-19 03:39 UTC.
Position N 26°06' W 080°10'.

Length 25 m; draft 12.9 m.

Type: Pleasure craft. MMSI: 369164000.

Date/timePositionNaut miles runAvg speedWind from/ knotsBaromVisibWave heightAir tempDewpointWater temp
2018-Jan-12 14:51N 26°06' W 080°10'0 0.0
2018-Jan-12 14:21N 26°06' W 080°10'0 0.0
2018-Jan-12 13:51N 26°06' W 080°10'0 0.0
2018-Jan-12 13:21N 26°06' W 080°10'0 0.0
2018-Jan-12 12:48N 26°06' W 080°10'0 0.0
2018-Jan-12 12:21N 26°06' W 080°10'0 0.0
2018-Jan-12 11:51N 26°06' W 080°10'0 0.0
2018-Jan-12 11:24N 26°06' W 080°10'0 0.0
2018-Jan-12 10:51N 26°06' W 080°10'0 0.0
2018-Jan-12 10:24N 26°06' W 080°10'0 0.0
2018-Jan-12 09:54N 26°06' W 080°10'0 0.0
2018-Jan-12 09:21N 26°06' W 080°10'0 0.0
2018-Jan-12 08:51N 26°06' W 080°10'0 0.0
2018-Jan-12 08:21N 26°06' W 080°10'0 0.0
2018-Jan-12 07:51N 26°06' W 080°10'0 0.0
2018-Jan-12 07:24N 26°06' W 080°10'0 0.0
2018-Jan-12 06:53N 26°06' W 080°10'0 0.0
2018-Jan-12 06:23N 26°06' W 080°10'0 0.0
2018-Jan-12 05:53N 26°06' W 080°10'0 0.0
2018-Jan-12 05:23N 26°06' W 080°10'0 0.0
2018-Jan-12 04:53N 26°06' W 080°10'0 0.0
2018-Jan-12 04:23N 26°06' W 080°10'0 0.0
2018-Jan-12 03:53N 26°06' W 080°10'0 0.0
2018-Jan-12 03:23N 26°06' W 080°10'0 0.0
2018-Jan-12 02:53N 26°06' W 080°10'0 0.0
2018-Jan-12 02:26N 26°06' W 080°10'0 0.0
2018-Jan-12 01:53N 26°06' W 080°10'0 0.0
2018-Jan-12 01:23N 26°06' W 080°10'0 0.0
2018-Jan-12 00:56N 26°06' W 080°10'0 0.0
2018-Jan-12 00:26N 26°06' W 080°10'0 0.0
2018-Jan-11 23:53N 26°06' W 080°10'0 0.0
2018-Jan-11 23:26N 26°06' W 080°10'0 0.0
2018-Jan-11 22:56N 26°06' W 080°10'0 0.0
2018-Jan-11 22:23N 26°06' W 080°10'0 0.0
2018-Jan-11 21:53N 26°06' W 080°10'0 0.0
2018-Jan-11 21:26N 26°06' W 080°10'0 0.0
2018-Jan-11 20:53N 26°06' W 080°10'0 0.0
2018-Jan-11 20:23N 26°06' W 080°10'0 0.0
2018-Jan-11 19:53N 26°06' W 080°10'0 0.3
2018-Jan-11 19:30N 26°06' W 080°10'1 3.0
2018-Jan-11 19:00N 26°07' W 080°09'2 3.3
2018-Jan-11 18:28N 26°07' W 080°07'3 6.5
2018-Jan-11 17:59N 26°05' W 080°03'1 2.3
2018-Jan-11 17:28N 26°06' W 080°04'2 3.7
2018-Jan-11 16:58N 26°05' W 080°06'2 4.4
2018-Jan-11 16:28N 26°03' W 080°06'4 8.3
2018-Jan-11 15:59N 26°07' W 080°07'2 4.2
2018-Jan-11 15:28N 26°07' W 080°10'1 1.1
2018-Jan-11 14:52N 26°06' W 080°10'0 0.0
2018-Jan-11 14:25N 26°06' W 080°10'0 0.0
2018-Jan-11 13:55N 26°06' W 080°10'0 0.0
2018-Jan-11 13:22N 26°06' W 080°10'0 0.0
2018-Jan-11 12:55N 26°06' W 080°10'0 0.0
2018-Jan-11 12:24N 26°06' W 080°10'0 0.0
2018-Jan-11 11:54N 26°06' W 080°10'0 0.0
2018-Jan-11 11:18N 26°06' W 080°10'0 0.0
2018-Jan-11 10:54N 26°06' W 080°10'0 0.0
2018-Jan-11 10:24N 26°06' W 080°10'0 0.0
2018-Jan-11 09:54N 26°06' W 080°10'0 0.0
2018-Jan-11 09:24N 26°06' W 080°10'0 0.0
2018-Jan-11 08:54N 26°06' W 080°10'0 0.0
2018-Jan-11 08:24N 26°06' W 080°10'0 0.0
2018-Jan-11 07:54N 26°06' W 080°10'0 0.0
2018-Jan-11 07:24N 26°06' W 080°10'0 0.0
2018-Jan-11 06:54N 26°06' W 080°10'0 0.0
2018-Jan-11 06:27N 26°06' W 080°10'0 0.0
2018-Jan-11 05:39N 26°06' W 080°10'0 0.0
2018-Jan-11 05:09N 26°06' W 080°10'0 0.0
2018-Jan-11 04:54N 26°06' W 080°10'0 0.0
2018-Jan-11 04:24N 26°06' W 080°10'0 0.0
2018-Jan-11 03:57N 26°06' W 080°10'0 0.0
2018-Jan-11 03:27N 26°06' W 080°10'0 0.0
2018-Jan-11 02:57N 26°06' W 080°10'0 0.0
2018-Jan-11 02:27N 26°06' W 080°10'0 0.0
2018-Jan-11 01:57N 26°06' W 080°10'0 0.0
2018-Jan-11 01:27N 26°06' W 080°10'0 0.0
2018-Jan-11 00:42N 26°06' W 080°10'0 0.0
2018-Jan-11 00:27N 26°06' W 080°10'0 0.0
2018-Jan-10 23:51N 26°06' W 080°10'0 0.0
2018-Jan-10 23:27N 26°06' W 080°10'0 0.0
2018-Jan-10 22:54N 26°06' W 080°10'0 0.0
2018-Jan-10 22:24N 26°06' W 080°10'0 0.0
2018-Jan-10 21:54N 26°06' W 080°10'0 0.0
2018-Jan-10 21:09N 26°06' W 080°10'0 0.0
2018-Jan-10 20:54N 26°06' W 080°10'0 0.0
2018-Jan-10 20:23N 26°06' W 080°10'0 0.0
2018-Jan-10 19:50N 26°06' W 080°10'0 0.0
2018-Jan-10 19:17N 26°06' W 080°10'0 0.0
2018-Jan-10 18:53N 26°06' W 080°10'0 0.0
2018-Jan-10 18:08N 26°06' W 080°10'0 0.0
2018-Jan-10 17:53N 26°06' W 080°10'0 0.0
2018-Jan-10 17:26N 26°06' W 080°10'0 0.0
2018-Jan-10 16:56N 26°06' W 080°10'0 0.0
2018-Jan-10 16:23N 26°06' W 080°10'0 0.0
2018-Jan-10 15:53N 26°06' W 080°10'0 0.0
2018-Jan-10 15:26N 26°06' W 080°10'0 0.0
2018-Jan-10 14:56N 26°06' W 080°10'0 0.0
2018-Jan-10 14:26N 26°06' W 080°10'0 0.0
2018-Jan-10 13:56N 26°06' W 080°10'0 0.0
2018-Jan-10 13:20N 26°06' W 080°10'0 0.0
2018-Jan-10 12:56N 26°06' W 080°10'0 0.0
2018-Jan-10 12:26N 26°06' W 080°10'0 0.0
2018-Jan-10 11:56N 26°06' W 080°10'0 0.0
2018-Jan-10 11:23N 26°06' W 080°10'0 0.0
2018-Jan-10 10:56N 26°06' W 080°10'0 0.0
2018-Jan-10 10:26N 26°06' W 080°10'0 0.0
2018-Jan-10 09:56N 26°06' W 080°10'0 0.0
2018-Jan-10 09:26N 26°06' W 080°10'0 0.0
2018-Jan-10 08:43N 26°06' W 080°10'0 0.0
2018-Jan-10 08:04N 26°06' W 080°10'0 0.0
2018-Jan-10 07:58N 26°06' W 080°10'0 0.0
2018-Jan-10 07:28N 26°06' W 080°10'0 0.0
2018-Jan-10 06:46N 26°06' W 080°10'0 0.0
2018-Jan-10 06:19N 26°06' W 080°10'0 0.0
2018-Jan-10 05:49N 26°06' W 080°10'0 0.0
2018-Jan-10 05:19N 26°06' W 080°10'0 0.0
2018-Jan-10 04:49N 26°06' W 080°10'0 0.0
2018-Jan-10 04:19N 26°06' W 080°10'0 0.0
2018-Jan-10 03:49N 26°06' W 080°10'0 0.0
2018-Jan-10 03:19N 26°06' W 080°10'0 0.0
2018-Jan-10 02:46N 26°06' W 080°10'0 0.0
2018-Jan-10 02:22N 26°06' W 080°10'0 0.0
2018-Jan-10 01:52N 26°06' W 080°10'0 0.0
2018-Jan-10 01:22N 26°06' W 080°10'0 0.0
2018-Jan-10 00:49N 26°06' W 080°10'0 0.0
2018-Jan-10 00:22N 26°06' W 080°10'0 0.0
2018-Jan-09 23:52N 26°06' W 080°10'0 0.0
2018-Jan-09 23:22N 26°06' W 080°10'0 0.0
2018-Jan-09 22:49N 26°06' W 080°10'0 0.0
2018-Jan-09 22:22N 26°06' W 080°10'0 0.0
2018-Jan-09 21:52N 26°06' W 080°10'0 0.0
2018-Jan-09 21:22N 26°06' W 080°10'0 0.0
2018-Jan-09 20:52N 26°06' W 080°10'0 0.0
2018-Jan-09 20:19N 26°06' W 080°10'0 0.0
2018-Jan-09 19:55N 26°06' W 080°10'0 0.0
2018-Jan-09 19:25N 26°06' W 080°10'0 0.0
2018-Jan-09 18:52N 26°06' W 080°10'0 0.0
2018-Jan-09 18:25N 26°06' W 080°10'0 0.0
2018-Jan-09 17:55N 26°06' W 080°10'0 0.0
2018-Jan-09 17:10N 26°06' W 080°10'0 0.0
2018-Jan-09 16:40N 26°06' W 080°10'0 0.0
2018-Jan-09 16:25N 26°06' W 080°10'0 0.0
2018-Jan-09 15:55N 26°06' W 080°10'0 0.0
2018-Jan-09 15:30N 26°06' W 080°10'0 0.0
2018-Jan-09 15:00N 26°06' W 080°10'0 0.0
2018-Jan-09 14:30N 26°06' W 080°10'0 0.0
2018-Jan-09 13:30N 26°06' W 080°10'0 0.0
2018-Jan-09 13:00N 26°06' W 080°10'0 0.0
2018-Jan-09 12:27N 26°06' W 080°10'0 0.0
2018-Jan-09 12:00N 26°06' W 080°10'0 0.0
2018-Jan-09 11:30N 26°06' W 080°10'0 0.0
2018-Jan-09 11:00N 26°06' W 080°10'0 0.0
2018-Jan-09 10:27N 26°06' W 080°10'0 0.0
2018-Jan-09 10:00N 26°06' W 080°10'0 0.0
2018-Jan-09 09:30N 26°06' W 080°10'0 0.0
2018-Jan-09 09:00N 26°06' W 080°10'0 0.0
2018-Jan-09 08:30N 26°06' W 080°10'0 0.0
2018-Jan-09 07:44N 26°06' W 080°10'0 0.0
2018-Jan-09 07:30N 26°06' W 080°10'0 0.0
2018-Jan-09 06:59N 26°06' W 080°10'0 0.0
2018-Jan-09 06:30N 26°06' W 080°10'0 0.0
2018-Jan-09 05:59N 26°06' W 080°10'0 0.0
2018-Jan-09 05:29N 26°06' W 080°10'0 0.0
2018-Jan-09 04:47N 26°06' W 080°10'0 0.0
2018-Jan-09 04:17N 26°06' W 080°10'0 0.0
2018-Jan-09 03:53N 26°06' W 080°10'0 0.0
2018-Jan-09 03:20N 26°06' W 080°10'0 0.0
2018-Jan-09 02:53N 26°06' W 080°10'0 0.0
2018-Jan-09 02:23N 26°06' W 080°10'0 0.0
2018-Jan-09 01:50N 26°06' W 080°10'0 0.0
2018-Jan-09 01:20N 26°06' W 080°10'0 0.0
2018-Jan-09 00:53N 26°06' W 080°10'0 0.0
2018-Jan-09 00:20N 26°06' W 080°10'0 0.0
2018-Jan-08 23:50N 26°06' W 080°10'0 0.0
2018-Jan-08 23:20N 26°06' W 080°10'0 0.0
2018-Jan-08 22:50N 26°06' W 080°10'0 0.0
2018-Jan-08 22:20N 26°06' W 080°10'0 0.0
2018-Jan-08 21:47N 26°06' W 080°10'0 0.0
2018-Jan-08 21:20N 26°06' W 080°10'0 0.0
2018-Jan-08 20:53N 26°06' W 080°10'0 0.0
2018-Jan-08 20:23N 26°06' W 080°10'0 0.0
2018-Jan-08 19:53N 26°06' W 080°10'0 0.0
2018-Jan-08 19:17N 26°06' W 080°10'0 0.0
2018-Jan-08 18:47N 26°06' W 080°10'0 0.0
2018-Jan-08 18:23N 26°06' W 080°10'0 0.0
2018-Jan-08 17:53N 26°06' W 080°10'0 0.0
2018-Jan-08 17:23N 26°06' W 080°10'0 0.0
2018-Jan-08 16:53N 26°06' W 080°10'0 0.0
2018-Jan-08 16:20N 26°06' W 080°10'0 0.0
2018-Jan-08 15:50N 26°06' W 080°10'0 0.0
2018-Jan-08 15:23N 26°06' W 080°10'0 0.0
2018-Jan-08 14:47N 26°06' W 080°10'0 0.0
2018-Jan-08 13:49N 26°06' W 080°10'0 0.0
2018-Jan-08 13:28N 26°06' W 080°10'0 0.0
2018-Jan-08 12:58N 26°06' W 080°10'0 0.0
2018-Jan-08 12:28N 26°06' W 080°10'0 0.0
2018-Jan-08 11:46N 26°06' W 080°10'0 0.0
2018-Jan-08 11:16N 26°06' W 080°10'0 0.0
2018-Jan-08 10:58N 26°06' W 080°10'0 0.0
2018-Jan-08 10:13N 26°06' W 080°10'0 0.0
2018-Jan-08 09:58N 26°06' W 080°10'0 0.0
2018-Jan-08 09:25N 26°06' W 080°10'0 0.0
2018-Jan-08 08:43N 26°06' W 080°10'0 0.0
2018-Jan-08 08:28N 26°06' W 080°10'0 0.0
2018-Jan-08 07:58N 26°06' W 080°10'0 0.0
2018-Jan-08 07:13N 26°06' W 080°10'0 0.0
2018-Jan-08 06:46N 26°06' W 080°10'0 0.0
2018-Jan-08 06:28N 26°06' W 080°10'0 0.0
2018-Jan-08 05:49N 26°06' W 080°10'0 0.0
2018-Jan-08 05:28N 26°06' W 080°10'0 0.0
2018-Jan-08 04:58N 26°06' W 080°10'0 0.0
2018-Jan-08 04:28N 26°06' W 080°10'0 0.0
2018-Jan-08 03:58N 26°06' W 080°10'0 0.0
2018-Jan-08 03:19N 26°06' W 080°10'0 0.0
2018-Jan-08 02:46N 26°06' W 080°10'0 0.0
2018-Jan-08 02:19N 26°06' W 080°10'0 0.0
2018-Jan-08 01:58N 26°06' W 080°10'0 0.0
2018-Jan-08 01:13N 26°06' W 080°10'0 0.0
2018-Jan-08 00:58N 26°06' W 080°10'0 0.0
2018-Jan-08 00:28N 26°06' W 080°10'0 0.0
2018-Jan-08 00:00N 26°06' W 080°10'0 0.0
2018-Jan-07 23:27N 26°06' W 080°10'0 0.0
2018-Jan-07 23:00N 26°06' W 080°10'0 0.0
2018-Jan-07 22:30N 26°06' W 080°10'0 0.0
2018-Jan-07 22:00N 26°06' W 080°10'0 0.0
2018-Jan-07 21:30N 26°06' W 080°10'0 0.0
2018-Jan-07 21:00N 26°06' W 080°10'0 0.0
2018-Jan-07 20:30N 26°06' W 080°10'0 0.0
2018-Jan-07 20:00N 26°06' W 080°10'0 0.0
2018-Jan-07 19:30N 26°06' W 080°10'0 0.0
2018-Jan-07 18:57N 26°06' W 080°10'0 0.0
2018-Jan-07 18:30N 26°06' W 080°10'0 0.0
2018-Jan-07 17:57N 26°06' W 080°10'0 0.0
2018-Jan-07 17:30N 26°06' W 080°10'0 0.0
2018-Jan-07 16:57N 26°06' W 080°10'0 0.0
2018-Jan-07 16:24N 26°06' W 080°10'0 0.0
2018-Jan-07 16:00N 26°06' W 080°10'0 0.0
2018-Jan-07 15:27N 26°06' W 080°10'0 0.0
2018-Jan-07 14:57N 26°06' W 080°10'0 0.0
2018-Jan-07 14:24N 26°06' W 080°10'0 0.0
2018-Jan-07 13:57N 26°06' W 080°10'0 0.0
2018-Jan-07 13:23N 26°06' W 080°10'0 0.0
2018-Jan-07 12:56N 26°06' W 080°10'0 0.0
2018-Jan-07 12:26N 26°06' W 080°10'0 0.0
2018-Jan-07 11:53N 26°06' W 080°10'0 0.0
2018-Jan-07 11:20N 26°06' W 080°10'0 0.0
2018-Jan-07 10:53N 26°06' W 080°10'0 0.0
2018-Jan-07 10:23N 26°06' W 080°10'0 0.0
2018-Jan-07 09:53N 26°06' W 080°10'0 0.0
2018-Jan-07 09:23N 26°06' W 080°10'0 0.0
2018-Jan-07 08:57N 26°06' W 080°10'0 0.0
2018-Jan-07 08:30N 26°06' W 080°10'0 0.0
2018-Jan-07 07:54N 26°06' W 080°10'0 0.0
2018-Jan-07 07:24N 26°06' W 080°10'0 0.0
2018-Jan-07 06:54N 26°06' W 080°10'0 0.0
2018-Jan-07 06:24N 26°06' W 080°10'0 0.0
2018-Jan-07 06:00N 26°06' W 080°10'0 0.0
2018-Jan-07 05:30N 26°06' W 080°10'0 0.0
2018-Jan-07 04:57N 26°06' W 080°10'0 0.0
2018-Jan-07 04:20N 26°06' W 080°10'0 0.0
2018-Jan-07 03:53N 26°06' W 080°10'0 0.0
2018-Jan-07 03:17N 26°06' W 080°10'0 0.0
2018-Jan-07 02:59N 26°06' W 080°10'0 0.0
2018-Jan-07 02:29N 26°06' W 080°10'0 0.0
2018-Jan-07 01:59N 26°06' W 080°10'0 0.0
2018-Jan-07 01:20N 26°06' W 080°10'0 0.0
2018-Jan-07 00:20N 26°06' W 080°10'0 0.0
2018-Jan-06 23:59N 26°06' W 080°10'0 0.0
2018-Jan-06 23:29N 26°06' W 080°10'0 0.0
2018-Jan-06 22:59N 26°06' W 080°10'0 0.0
2018-Jan-06 22:29N 26°06' W 080°10'0 0.0
2018-Jan-06 21:56N 26°06' W 080°10'0 0.0
2018-Jan-06 21:29N 26°06' W 080°10'0 0.0
2018-Jan-06 20:59N 26°06' W 080°10'0 0.0
2018-Jan-06 20:29N 26°06' W 080°10'0 0.0
2018-Jan-06 19:59N 26°06' W 080°10'0 0.0
2018-Jan-06 19:28N 26°06' W 080°10'0 0.0
2018-Jan-06 18:58N 26°06' W 080°10'0 0.0
2018-Jan-06 18:22N 26°06' W 080°10'0 0.0
2018-Jan-06 17:58N 26°06' W 080°10'0 0.0
2018-Jan-06 17:28N 26°06' W 080°10'0 0.0
2018-Jan-06 16:55N 26°06' W 080°10'0 0.0
2018-Jan-06 16:25N 26°06' W 080°10'0 0.0
2018-Jan-06 15:43N 26°06' W 080°10'0 0.0
2018-Jan-06 15:28N 26°06' W 080°10'0 0.0
2018-Jan-06 14:55N 26°06' W 080°10'0 0.0
2018-Jan-06 14:19N 26°06' W 080°10'0 0.0
2018-Jan-06 13:49N 26°06' W 080°10'0 0.0
2018-Jan-06 13:28N 26°06' W 080°10'0 0.0
2018-Jan-06 12:04N 26°06' W 080°10'0 0.0
2018-Jan-06 11:49N 26°06' W 080°10'0 0.0
2018-Jan-06 11:28N 26°06' W 080°10'0 0.0
2018-Jan-06 10:52N 26°06' W 080°10'0 0.0
2018-Jan-06 10:19N 26°06' W 080°10'0 0.0
2018-Jan-06 10:01N 26°06' W 080°10'0 0.0
2018-Jan-06 09:30N 26°06' W 080°10'0 0.0
2018-Jan-06 09:00N 26°06' W 080°10'0 0.0
2018-Jan-06 08:30N 26°06' W 080°10'0 0.0
2018-Jan-06 08:00N 26°06' W 080°10'0 0.0
2018-Jan-06 07:30N 26°06' W 080°10'0 0.0
2018-Jan-06 07:00N 26°06' W 080°10'0 0.0
2018-Jan-06 06:30N 26°06' W 080°10'0 0.0
2018-Jan-06 05:48N 26°06' W 080°10'0 0.0
2018-Jan-06 05:30N 26°06' W 080°10'0 0.0
2018-Jan-06 05:00N 26°06' W 080°10'0 0.0
2018-Jan-06 04:30N 26°06' W 080°10'0 0.0
2018-Jan-06 04:00N 26°06' W 080°10'0 0.0
2018-Jan-06 03:30N 26°06' W 080°10'0 0.0
2018-Jan-06 02:57N 26°06' W 080°10'0 0.0
2018-Jan-06 02:30N 26°06' W 080°10'0 0.0
2018-Jan-06 01:54N 26°06' W 080°10'0 0.0
2018-Jan-06 01:27N 26°06' W 080°10'0 0.0
2018-Jan-06 00:54N 26°06' W 080°10'0 0.0
2018-Jan-06 00:30N 26°06' W 080°10'0 0.0
2018-Jan-05 23:50N 26°06' W 080°10'0 0.0
2018-Jan-05 23:26N 26°06' W 080°10'0 0.0
2018-Jan-05 22:47N 26°06' W 080°10'0 0.0
2018-Jan-05 22:29N 26°06' W 080°10'0 0.0
2018-Jan-05 21:50N 26°06' W 080°10'0 0.0
2018-Jan-05 21:29N 26°06' W 080°10'0 0.0
2018-Jan-05 20:59N 26°06' W 080°10'0 0.0
2018-Jan-05 20:20N 26°06' W 080°10'0 0.0
2018-Jan-05 19:59N 26°06' W 080°10'0 0.0
2018-Jan-05 19:29N 26°06' W 080°10'0 0.0
2018-Jan-05 18:50N 26°06' W 080°10'0 0.0
2018-Jan-05 18:29N 26°06' W 080°10'0 0.0
2018-Jan-05 17:59N 26°06' W 080°10'0 0.0
2018-Jan-05 17:29N 26°06' W 080°10'0 0.0
2018-Jan-05 16:59N 26°06' W 080°10'0 0.0
2018-Jan-05 16:29N 26°06' W 080°10'0 0.0
2018-Jan-05 15:56N 26°06' W 080°10'0 0.0
2018-Jan-05 15:29N 26°06' W 080°10'0 0.0
2018-Jan-05 14:59N 26°06' W 080°10'0 0.0
2018-Jan-05 14:29N 26°06' W 080°10'0 0.0
2018-Jan-05 13:59N 26°06' W 080°10'0 0.0
2018-Jan-05 13:17N 26°06' W 080°10'0 0.0
2018-Jan-05 12:50N 26°06' W 080°10'0 0.0
2018-Jan-05 12:29N 26°06' W 080°10'0 0.0
2018-Jan-05 11:56N 26°06' W 080°10'0 0.0
2018-Jan-05 11:20N 26°06' W 080°10'0 0.0
2018-Jan-05 10:53N 26°06' W 080°10'0 0.0
2018-Jan-05 10:20N 26°06' W 080°10'0 0.0
2018-Jan-05 09:59N 26°06' W 080°10'0 0.0
2018-Jan-05 09:26N 26°06' W 080°10'0 0.0
2018-Jan-05 09:00N 26°06' W 080°10'0 0.0
2018-Jan-05 08:29N 26°06' W 080°10'0 0.0
2018-Jan-05 07:59N 26°06' W 080°10'0 0.0
2018-Jan-05 07:29N 26°06' W 080°10'0 0.0
2018-Jan-05 06:59N 26°06' W 080°10'0 0.0
2018-Jan-05 06:13N 26°06' W 080°10'0 0.0
2018-Jan-05 05:58N 26°06' W 080°10'0 0.0
2018-Jan-05 05:28N 26°06' W 080°10'0 0.0
2018-Jan-05 04:58N 26°06' W 080°10'0 0.0
2018-Jan-05 04:28N 26°06' W 080°10'0 0.0
2018-Jan-05 03:58N 26°06' W 080°10'0 0.0
2018-Jan-05 03:28N 26°06' W 080°10'0 0.0
2018-Jan-05 02:55N 26°06' W 080°10'0 0.0
2018-Jan-05 02:19N 26°06' W 080°10'0 0.0
2018-Jan-05 01:58N 26°06' W 080°10'0 0.0
2018-Jan-05 01:25N 26°06' W 080°10'0 0.0
2018-Jan-05 00:55N 26°06' W 080°10'0 0.0
2018-Jan-05 00:28N 26°06' W 080°10'0 0.0
2018-Jan-04 23:58N 26°06' W 080°10'0 0.0
2018-Jan-04 23:25N 26°06' W 080°10'0 0.0
2018-Jan-04 22:58N 26°06' W 080°10'0 0.0
2018-Jan-04 22:28N 26°06' W 080°10'0 0.0
2018-Jan-04 21:58N 26°06' W 080°10'0 0.0
2018-Jan-04 21:28N 26°06' W 080°10'0 0.0
2018-Jan-04 20:58N 26°06' W 080°10'0 0.0
2018-Jan-04 20:28N 26°06' W 080°10'0 0.0
2018-Jan-04 19:58N 26°06' W 080°10'0 0.0
2018-Jan-04 19:28N 26°06' W 080°10'0 0.0
2018-Jan-04 18:58N 26°06' W 080°10'0 0.0
2018-Jan-04 18:28N 26°06' W 080°10'0 0.0
2018-Jan-04 17:58N 26°06' W 080°10'0 0.0
2018-Jan-04 17:28N 26°06' W 080°10'0 0.0
2018-Jan-04 16:58N 26°06' W 080°10'0 0.0
2018-Jan-04 16:28N 26°06' W 080°10'0 0.0
2018-Jan-04 15:58N 26°06' W 080°10'0 0.0
2018-Jan-03 16:20N 26°06' W 080°10'0 0.0
2018-Jan-03 15:50N 26°06' W 080°10'0 0.0
2018-Jan-03 15:20N 26°06' W 080°10'0 0.0
2018-Jan-03 14:50N 26°06' W 080°10'0 0.0
2018-Jan-03 14:20N 26°06' W 080°10'0 0.0
2018-Jan-03 13:35N 26°06' W 080°10'0 0.0
2018-Jan-03 13:20N 26°06' W 080°10'0 0.0
2018-Jan-03 12:35N 26°06' W 080°10'0 0.0
2018-Jan-03 12:20N 26°06' W 080°10'0 0.0
2018-Jan-03 11:50N 26°06' W 080°10'0 0.0
2018-Jan-03 11:20N 26°06' W 080°10'0 0.0
2018-Jan-03 10:53N 26°06' W 080°10'0 0.0
2018-Jan-03 10:02N 26°06' W 080°10'0 0.0
2018-Jan-03 09:35N 26°06' W 080°10'0 0.0
2018-Jan-03 09:23N 26°06' W 080°10'0 0.0
2018-Jan-03 08:53N 26°06' W 080°10'0 0.1
2018-Jan-03 08:20N 26°06' W 080°10'0 0.1
2018-Jan-03 07:53N 26°06' W 080°10'0 0.0
2018-Jan-03 07:23N 26°06' W 080°10'0 0.0
2018-Jan-03 06:47N 26°06' W 080°10'0 0.0
2018-Jan-03 06:23N 26°06' W 080°10'0 0.0
2018-Jan-03 05:53N 26°06' W 080°10'0 0.0
2018-Jan-03 05:23N 26°06' W 080°10'0 0.0
2018-Jan-03 04:53N 26°06' W 080°10'0 0.0
2018-Jan-03 04:23N 26°06' W 080°10'0 0.0
2018-Jan-03 03:53N 26°06' W 080°10'0 0.0
2018-Jan-03 03:20N 26°06' W 080°10'0 0.0
2018-Jan-03 02:53N 26°06' W 080°10'0 0.0
2018-Jan-03 02:26N 26°06' W 080°10'0 0.0
2018-Jan-03 01:56N 26°06' W 080°10'0 0.0
2018-Jan-03 01:26N 26°06' W 080°10'0 0.0
2018-Jan-03 00:56N 26°06' W 080°10'0 0.0
2018-Jan-03 00:23N 26°06' W 080°10'0 0.0
2018-Jan-02 23:56N 26°06' W 080°10'0 0.0
2018-Jan-02 23:26N 26°06' W 080°10'0 0.0
2018-Jan-02 22:56N 26°06' W 080°10'0 0.0
2018-Jan-02 22:26N 26°06' W 080°10'0 0.0
2018-Jan-02 21:56N 26°06' W 080°10'0 0.0
2018-Jan-02 21:26N 26°06' W 080°10'0 0.0
2018-Jan-02 20:56N 26°06' W 080°10'0 0.0
2018-Jan-02 20:29N 26°06' W 080°10'0 0.0
2018-Jan-02 19:59N 26°06' W 080°10'0 0.0
2018-Jan-02 19:29N 26°06' W 080°10'0 0.0
2018-Jan-02 18:44N 26°06' W 080°10'0 0.0
2018-Jan-02 18:29N 26°06' W 080°10'0 0.0
2018-Jan-02 17:59N 26°06' W 080°10'0 0.0
2018-Jan-02 17:29N 26°06' W 080°10'0 0.0
2018-Jan-02 16:59N 26°06' W 080°10'0 0.0
2018-Jan-02 16:29N 26°06' W 080°10'0 0.0
2018-Jan-02 15:59N 26°06' W 080°10'0 0.0
2018-Jan-02 15:26N 26°06' W 080°10'0 0.0
2018-Jan-02 14:59N 26°06' W 080°10'  

Dump ship's entire track history